Time;durP1;ratioP1;P1;durP2;ratioP2;P2;SDS_P1;SDS_P2;PMS_P1;PMS_P2;Temp;Humidity;BMP_temperature;BMP_pressure;BME280_temperature;BME280_humidity;BME280_pressure;Samples;Min_cycle;Max_cycle;Signal;HPM_P1;HPM_P2
2023/06/25 00:02:00;;;;;;;7.53;6.53;;;22.30;99.90;;;;;;5010128;28;20215;-76
2023/06/25 00:04:28;;;;;;;7.75;6.82;;;22.20;99.90;;;;;;5009526;28;20191;-76
2023/06/25 00:06:55;;;;;;;7.97;6.78;;;22.20;99.90;;;;;;5027242;28;20219;-76
2023/06/25 00:09:23;;;;;;;7.82;7.13;;;22.00;99.90;;;;;;5009773;28;20200;-76
2023/06/25 00:11:51;;;;;;;7.50;6.80;;;21.90;99.90;;;;;;5006957;28;20231;-76
2023/06/25 00:14:19;;;;;;;7.93;7.13;;;21.80;99.90;;;;;;5006731;28;20561;-76
2023/06/25 00:16:46;;;;;;;7.00;6.30;;;21.80;99.90;;;;;;5023814;28;20207;-76
2023/06/25 00:19:17;;;;;;;8.52;7.60;;;21.70;99.90;;;;;;5011595;28;20554;-75
2023/06/25 00:21:45;;;;;;;8.45;6.95;;;21.70;99.90;;;;;;5001752;28;20696;-76
2023/06/25 00:24:15;;;;;;;7.78;7.03;;;21.70;99.90;;;;;;5008714;28;20206;-76
2023/06/25 00:26:45;;;;;;;6.57;5.85;;;21.60;99.90;;;;;;5011162;28;20203;-76
2023/06/25 00:29:14;;;;;;;6.30;5.70;;;21.60;99.90;;;;;;5012863;28;20230;-76
2023/06/25 00:31:44;;;;;;;6.05;5.45;;;21.60;99.90;;;;;;5026800;28;20215;-76
2023/06/25 00:34:12;;;;;;;7.72;5.43;;;21.60;99.90;;;;;;5018071;28;20210;-76
2023/06/25 00:36:40;;;;;;;7.63;5.85;;;21.60;99.90;;;;;;5022720;28;20199;-76
2023/06/25 00:39:08;;;;;;;6.07;5.47;;;21.60;99.90;;;;;;5027404;28;20203;-75
2023/06/25 00:41:38;;;;;;;7.40;5.85;;;21.50;99.90;;;;;;5030160;28;20223;-76
2023/06/25 00:44:06;;;;;;;6.90;6.20;;;21.50;99.90;;;;;;5006027;28;20192;-76
2023/06/25 00:46:35;;;;;;;6.47;5.88;;;21.90;99.90;;;;;;5003224;28;20590;-76
2023/06/25 00:49:05;;;;;;;6.68;5.97;;;21.80;99.90;;;;;;5026091;28;20702;-76
2023/06/25 00:51:35;;;;;;;6.70;5.63;;;21.70;99.90;;;;;;5024916;28;20222;-76
2023/06/25 00:54:04;;;;;;;6.25;5.65;;;21.40;99.90;;;;;;5011972;28;20196;-76
2023/06/25 00:56:33;;;;;;;6.90;6.28;;;21.30;99.90;;;;;;5010281;28;20227;-76
2023/06/25 00:59:02;;;;;;;6.90;6.25;;;21.30;99.90;;;;;;5027915;28;20658;-76
2023/06/25 01:01:44;;;;;;;7.63;6.90;;;21.20;99.90;;;;;;5010229;28;20593;-76
2023/06/25 01:04:19;;;;;;;7.07;6.47;;;21.10;99.90;;;;;;5009345;28;20203;-76
2023/06/25 01:06:51;;;;;;;7.18;5.93;;;21.20;99.90;;;;;;5007800;28;20195;-76
2023/06/25 01:09:19;;;;;;;7.32;6.05;;;21.10;99.90;;;;;;5008614;28;20235;-76
2023/06/25 01:11:53;;;;;;;6.72;5.78;;;21.10;99.90;;;;;;5015480;28;20227;-76
2023/06/25 01:14:21;;;;;;;7.70;6.45;;;21.10;99.90;;;;;;5026295;28;20203;-76
2023/06/25 01:16:51;;;;;;;6.50;5.90;;;21.10;99.90;;;;;;5010799;28;20540;-76
2023/06/25 01:19:19;;;;;;;6.85;6.25;;;20.90;99.90;;;;;;5012071;28;20215;-76
2023/06/25 01:21:47;;;;;;;8.00;6.07;;;20.90;99.90;;;;;;5025064;28;20226;-76
2023/06/25 01:24:16;;;;;;;6.68;6.07;;;21.00;99.90;;;;;;5009404;28;20203;-76
2023/06/25 01:26:44;;;;;;;7.18;5.88;;;20.90;99.90;;;;;;5008292;28;20195;-75
2023/06/25 01:29:11;;;;;;;6.78;6.15;;;20.90;99.90;;;;;;5008609;28;20613;-76
2023/06/25 01:31:40;;;;;;;6.95;6.25;;;20.80;99.90;;;;;;5025694;28;20224;-76
2023/06/25 01:34:07;;;;;;;7.30;6.50;;;20.90;99.90;;;;;;5026482;28;20230;-76
2023/06/25 01:36:39;;;;;;;8.57;6.45;;;20.90;99.90;;;;;;5025943;28;20200;-76
2023/06/25 01:39:07;;;;;;;8.43;6.97;;;20.80;99.90;;;;;;5001421;28;20662;-76
2023/06/25 01:41:36;;;;;;;6.93;6.20;;;20.80;99.90;;;;;;5027090;28;20230;-76
2023/06/25 01:44:04;;;;;;;9.40;6.80;;;20.80;99.90;;;;;;5007577;28;20661;-75
2023/06/25 01:46:31;;;;;;;7.32;6.53;;;20.80;99.90;;;;;;5006371;28;20215;-76
2023/06/25 01:48:59;;;;;;;6.97;6.28;;;20.80;99.90;;;;;;5011300;28;20220;-76
2023/06/25 01:51:26;;;;;;;7.13;6.40;;;20.60;99.90;;;;;;5010395;28;20600;-76
2023/06/25 01:53:54;;;;;;;8.02;6.65;;;20.60;99.90;;;;;;5026557;28;20199;-75
2023/06/25 01:56:21;;;;;;;9.70;6.93;;;20.30;99.90;;;;;;5009822;28;20204;-76
2023/06/25 01:58:52;;;;;;;7.03;6.32;;;20.40;99.90;;;;;;5008852;28;20662;-75
2023/06/25 02:01:20;;;;;;;7.38;6.22;;;20.40;99.90;;;;;;5010252;28;20215;-76
2023/06/25 02:03:47;;;;;;;7.60;6.25;;;20.40;99.90;;;;;;5022766;28;20556;-76
2023/06/25 02:06:15;;;;;;;7.82;7.05;;;20.30;99.90;;;;;;5008064;28;20204;-76
2023/06/25 02:08:43;;;;;;;7.78;6.63;;;20.30;99.90;;;;;;5012701;28;20204;-76
2023/06/25 02:11:10;;;;;;;8.00;7.20;;;20.20;99.90;;;;;;5012039;28;20219;-76
2023/06/25 02:13:39;;;;;;;7.80;7.00;;;20.10;99.90;;;;;;5028907;28;20212;-76
2023/06/25 02:16:08;;;;;;;7.32;6.63;;;20.20;99.90;;;;;;5026773;28;20200;-76
2023/06/25 02:18:36;;;;;;;6.43;5.78;;;20.20;99.90;;;;;;5021007;28;20773;-76
2023/06/25 02:21:04;;;;;;;7.43;6.60;;;20.30;99.90;;;;;;5028999;28;20226;-76
2023/06/25 02:23:31;;;;;;;8.60;6.63;;;20.40;99.90;;;;;;5028508;28;20203;-76
2023/06/25 02:25:59;;;;;;;7.32;6.30;;;20.40;99.90;;;;;;5035262;28;20196;-76
2023/06/25 02:28:27;;;;;;;8.10;7.10;;;20.90;99.90;;;;;;5028768;28;20211;-76
2023/06/25 02:30:54;;;;;;;10.18;6.70;;;20.60;99.90;;;;;;5028194;28;20219;-76
2023/06/25 02:33:23;;;;;;;7.43;6.38;;;20.60;99.90;;;;;;5028172;28;20199;-76
2023/06/25 02:35:51;;;;;;;6.95;6.25;;;20.50;99.90;;;;;;5027243;28;20199;-76
2023/06/25 02:38:18;;;;;;;8.43;6.97;;;20.60;99.90;;;;;;5012777;28;20194;-76
2023/06/25 02:40:45;;;;;;;8.00;7.20;;;20.80;99.90;;;;;;5017590;28;20224;-76
2023/06/25 02:43:13;;;;;;;7.88;7.13;;;20.50;99.90;;;;;;5004465;28;20210;-76
2023/06/25 02:45:41;;;;;;;7.38;6.63;;;20.10;99.90;;;;;;5005956;28;20187;-76
2023/06/25 02:48:08;;;;;;;7.85;6.72;;;20.10;99.90;;;;;;5027134;28;20215;-76
2023/06/25 02:50:37;;;;;;;7.50;6.13;;;20.40;99.90;;;;;;5027618;28;20220;-76
2023/06/25 02:53:04;;;;;;;8.02;7.22;;;20.50;99.90;;;;;;5011339;28;20206;-75
2023/06/25 02:55:32;;;;;;;7.90;7.20;;;20.70;99.90;;;;;;5024732;28;20678;-76
2023/06/25 02:57:59;;;;;;;8.90;7.10;;;20.50;99.90;;;;;;5011941;28;20675;-76
2023/06/25 03:00:27;;;;;;;8.38;7.13;;;19.90;99.90;;;;;;5019495;28;20222;-76
2023/06/25 03:02:54;;;;;;;8.10;7.28;;;19.40;99.90;;;;;;5010509;28;20199;-76
2023/06/25 03:05:22;;;;;;;9.27;6.88;;;19.60;99.90;;;;;;5010534;28;20195;-76
2023/06/25 03:07:53;;;;;;;7.90;7.13;;;19.50;99.90;;;;;;5010592;28;20195;-76
2023/06/25 03:10:23;;;;;;;9.35;7.35;;;19.60;99.90;;;;;;5009822;28;20219;-75
2023/06/25 03:12:50;;;;;;;8.20;7.25;;;19.30;99.90;;;;;;5004007;28;20560;-76
2023/06/25 03:15:18;;;;;;;7.43;6.55;;;19.30;99.90;;;;;;5012050;28;20203;-75
2023/06/25 03:17:46;;;;;;;8.48;7.32;;;19.60;99.90;;;;;;5010563;28;20195;-76
2023/06/25 03:20:14;;;;;;;9.13;7.03;;;19.70;99.90;;;;;;5015218;28;20218;-75
2023/06/25 03:22:41;;;;;;;8.40;6.45;;;19.70;99.90;;;;;;5025717;28;20199;-76
2023/06/25 03:25:11;;;;;;;8.50;7.70;;;19.80;99.90;;;;;;5005740;28;20215;-76
2023/06/25 03:27:42;;;;;;;8.73;7.32;;;19.70;99.90;;;;;;5010515;28;20196;-76
2023/06/25 03:30:10;;;;;;;8.82;7.35;;;19.80;99.90;;;;;;5010958;28;20219;-76
2023/06/25 03:32:38;;;;;;;6.63;6.03;;;19.90;99.90;;;;;;5010431;28;20219;-76
2023/06/25 03:35:06;;;;;;;10.77;6.78;;;20.00;99.90;;;;;;5008725;28;20283;-76
2023/06/25 03:37:34;;;;;;;8.38;6.63;;;20.00;99.90;;;;;;5003318;28;20195;-76
2023/06/25 03:40:02;;;;;;;11.68;6.47;;;19.90;99.90;;;;;;5009152;28;20195;-76
2023/06/25 03:42:32;;;;;;;7.50;6.55;;;19.90;99.90;;;;;;5024939;28;20219;-75
2023/06/25 03:45:00;;;;;;;7.20;6.50;;;19.90;99.90;;;;;;5023359;28;20203;-75
2023/06/25 03:47:30;;;;;;;7.88;7.07;;;19.90;99.90;;;;;;5023925;28;20219;-76
2023/06/25 03:49:57;;;;;;;7.40;6.70;;;19.90;99.90;;;;;;5009913;28;20211;-76
2023/06/25 03:52:25;;;;;;;7.82;6.78;;;19.90;99.90;;;;;;5008587;28;20219;-76
2023/06/25 03:54:52;;;;;;;8.70;7.50;;;20.10;99.90;;;;;;5017332;28;20196;-75
2023/06/25 03:57:22;;;;;;;10.45;7.55;;;20.00;99.90;;;;;;5023081;28;20665;-76
2023/06/25 03:59:58;;;;;;;8.07;7.10;;;20.10;99.90;;;;;;5013342;28;20195;-76
2023/06/25 04:02:25;;;;;;;8.63;7.15;;;20.20;99.90;;;;;;5005047;28;20589;-75
2023/06/25 04:04:53;;;;;;;10.18;7.68;;;20.20;99.90;;;;;;5024150;28;20250;-75
2023/06/25 04:07:20;;;;;;;9.40;6.90;;;20.00;99.90;;;;;;5009009;28;20214;-76
2023/06/25 04:09:48;;;;;;;8.48;7.13;;;20.10;99.90;;;;;;5008716;28;20203;-76
2023/06/25 04:12:15;;;;;;;7.82;7.03;;;20.10;99.90;;;;;;5019579;28;20604;-78
2023/06/25 04:14:42;;;;;;;8.07;7.30;;;20.20;99.90;;;;;;5003104;28;20199;-78
2023/06/25 04:17:11;;;;;;;9.30;7.15;;;20.40;99.90;;;;;;5009510;28;20199;-78
2023/06/25 04:19:39;;;;;;;7.95;7.03;;;20.50;99.90;;;;;;5016124;28;20192;-78
2023/06/25 04:22:06;;;;;;;9.73;7.88;;;20.50;99.90;;;;;;5014359;28;20230;-78
2023/06/25 04:24:34;;;;;;;7.30;6.60;;;20.40;99.90;;;;;;5012901;28;20692;-78
2023/06/25 04:27:02;;;;;;;10.07;7.25;;;20.70;99.90;;;;;;5006539;28;20223;-78
2023/06/25 04:29:30;;;;;;;9.73;8.00;;;20.70;99.90;;;;;;5009656;28;20227;-76
2023/06/25 04:32:01;;;;;;;9.30;7.18;;;20.60;99.90;;;;;;5009439;28;20215;-76
2023/06/25 04:34:32;;;;;;;9.68;6.93;;;20.60;99.90;;;;;;5006553;28;20548;-76
2023/06/25 04:36:59;;;;;;;9.13;6.65;;;20.70;99.90;;;;;;5018049;28;20219;-76
2023/06/25 04:39:27;;;;;;;8.77;7.03;;;20.80;99.90;;;;;;5009469;28;20208;-76
2023/06/25 04:41:56;;;;;;;7.43;6.63;;;20.70;99.90;;;;;;5031177;28;20222;-76
2023/06/25 04:44:25;;;;;;;9.32;7.65;;;20.60;99.90;;;;;;5012549;28;20561;-76
2023/06/25 04:46:52;;;;;;;7.18;6.00;;;20.80;99.90;;;;;;5010681;28;20199;-75
2023/06/25 04:49:20;;;;;;;8.13;7.00;;;21.00;99.90;;;;;;5024982;28;20208;-75
2023/06/25 04:51:48;;;;;;;6.90;6.03;;;21.60;99.90;;;;;;5016825;28;20228;-75
2023/06/25 04:54:16;;;;;;;9.20;7.30;;;21.80;99.90;;;;;;5006466;28;20199;-75
2023/06/25 04:56:43;;;;;;;7.60;6.78;;;22.00;99.90;;;;;;5025023;28;20206;-75
2023/06/25 04:59:11;;;;;;;7.85;7.05;;;22.00;99.90;;;;;;5022611;28;20662;-75
2023/06/25 05:01:38;;;;;;;9.40;6.70;;;22.20;99.90;;;;;;5009299;28;20227;-76
2023/06/25 05:04:11;;;;;;;7.90;7.05;;;22.30;99.90;;;;;;5011101;28;20192;-76
2023/06/25 05:06:41;;;;;;;7.55;6.88;;;22.30;99.90;;;;;;5010928;28;20211;-78
2023/06/25 05:09:52;;;;;;;8.65;7.05;;;22.30;99.90;;;;;;5012053;28;20203;-76
2023/06/25 05:12:21;;;;;;;12.68;8.55;;;22.30;99.90;;;;;;5003136;28;20227;-76
2023/06/25 05:14:49;;;;;;;8.48;6.97;;;22.40;99.90;;;;;;5010166;28;20206;-75
2023/06/25 05:17:17;;;;;;;8.07;6.60;;;22.40;99.90;;;;;;5011207;28;20203;-76
2023/06/25 05:19:45;;;;;;;8.90;6.53;;;22.60;99.90;;;;;;5017960;28;20226;-76
2023/06/25 05:22:13;;;;;;;9.45;8.05;;;22.60;99.90;;;;;;5006558;28;20238;-76
2023/06/25 05:24:40;;;;;;;7.90;7.10;;;22.40;99.90;;;;;;5009985;28;20569;-76
2023/06/25 05:27:08;;;;;;;8.40;6.93;;;22.70;99.90;;;;;;5027908;28;20204;-75
2023/06/25 05:29:36;;;;;;;8.52;7.72;;;22.80;99.90;;;;;;5030914;28;20211;-76
2023/06/25 05:32:05;;;;;;;7.97;6.85;;;22.80;99.90;;;;;;5003339;28;20817;-76
2023/06/25 05:34:33;;;;;;;7.13;6.53;;;22.80;99.90;;;;;;5027706;28;20210;-75
2023/06/25 05:37:00;;;;;;;8.20;7.15;;;22.90;99.90;;;;;;5028950;28;20657;-76
2023/06/25 05:39:29;;;;;;;8.07;7.28;;;23.00;99.90;;;;;;5029294;28;20563;-75
2023/06/25 05:41:57;;;;;;;7.45;6.72;;;23.20;99.90;;;;;;5010012;28;20216;-76
2023/06/25 05:44:24;;;;;;;8.55;7.22;;;23.20;99.90;;;;;;5013946;28;20227;-76
2023/06/25 05:46:54;;;;;;;7.80;7.10;;;23.20;99.90;;;;;;5027830;28;20195;-76
2023/06/25 05:49:22;;;;;;;9.18;6.80;;;22.90;99.90;;;;;;5021785;28;20204;-75
2023/06/25 05:51:49;;;;;;;7.45;6.53;;;22.70;99.90;;;;;;5010627;28;20224;-75
2023/06/25 05:54:16;;;;;;;7.38;6.65;;;23.00;99.90;;;;;;5009574;28;20203;-75
2023/06/25 05:56:44;;;;;;;7.65;6.95;;;23.10;99.90;;;;;;5028750;28;20208;-75
2023/06/25 05:59:11;;;;;;;7.68;6.97;;;23.30;99.90;;;;;;5009987;28;20195;-76
2023/06/25 06:01:39;;;;;;;7.25;6.65;;;23.50;99.90;;;;;;5012220;28;20705;-76
2023/06/25 06:04:08;;;;;;;7.53;6.80;;;23.50;99.90;;;;;;5010975;28;20200;-76
2023/06/25 06:06:35;;;;;;;8.15;7.28;;;23.60;99.90;;;;;;5015142;28;20219;-76
2023/06/25 06:09:03;;;;;;;8.10;7.30;;;23.60;99.90;;;;;;5013140;28;20203;-76
2023/06/25 06:11:30;;;;;;;8.18;7.38;;;23.50;99.90;;;;;;5028518;28;20230;-76
2023/06/25 06:13:58;;;;;;;10.40;7.55;;;23.30;99.90;;;;;;5010348;28;20195;-75
2023/06/25 06:16:25;;;;;;;9.50;7.72;;;23.30;99.90;;;;;;5009271;28;20291;-75
2023/06/25 06:18:52;;;;;;;8.32;7.55;;;23.20;99.90;;;;;;5023962;28;20203;-76
2023/06/25 06:21:21;;;;;;;8.50;7.20;;;23.20;99.90;;;;;;5009850;28;20227;-76
2023/06/25 06:23:48;;;;;;;9.20;7.95;;;23.20;99.90;;;;;;5025355;28;20192;-76
2023/06/25 06:26:17;;;;;;;9.10;7.95;;;23.30;99.90;;;;;;5013323;28;20196;-76
2023/06/25 06:28:47;;;;;;;8.13;7.32;;;23.40;99.90;;;;;;5011929;28;20564;-76
2023/06/25 06:31:16;;;;;;;8.68;7.50;;;23.50;99.90;;;;;;5010851;28;20227;-76
2023/06/25 06:33:44;;;;;;;8.60;7.03;;;23.60;99.90;;;;;;5027713;28;20198;-76
2023/06/25 06:36:12;;;;;;;8.98;7.97;;;23.50;99.90;;;;;;5021358;28;20207;-76
2023/06/25 06:38:41;;;;;;;8.52;7.75;;;23.60;99.90;;;;;;5012118;28;20208;-76
2023/06/25 06:41:08;;;;;;;7.90;7.20;;;23.60;99.90;;;;;;5012978;28;20208;-76
2023/06/25 06:43:36;;;;;;;7.85;7.15;;;23.80;99.90;;;;;;5020919;28;20195;-76
2023/06/25 06:46:03;;;;;;;8.40;7.60;;;23.90;99.90;;;;;;5010090;28;20202;-76
2023/06/25 06:48:40;;;;;;;7.05;6.45;;;23.90;99.90;;;;;;5011706;28;20199;-75
2023/06/25 06:51:07;;;;;;;7.78;7.03;;;24.00;99.90;;;;;;5009964;28;20222;-75
2023/06/25 06:53:34;;;;;;;7.43;6.57;;;24.10;99.90;;;;;;5002142;28;20208;-75
2023/06/25 06:56:03;;;;;;;8.35;7.35;;;24.20;99.90;;;;;;5004923;28;20204;-76
2023/06/25 06:58:31;;;;;;;8.30;7.43;;;24.40;99.90;;;;;;5010219;28;20195;-76
2023/06/25 07:00:58;;;;;;;6.78;6.18;;;24.40;99.90;;;;;;5010234;28;20219;-76
2023/06/25 07:03:25;;;;;;;8.35;7.57;;;24.60;99.90;;;;;;5031202;28;20214;-76
2023/06/25 07:05:53;;;;;;;8.57;7.78;;;24.70;99.90;;;;;;5029198;28;20217;-76
2023/06/25 07:08:20;;;;;;;9.20;8.30;;;24.50;99.90;;;;;;5027792;28;20219;-76
2023/06/25 07:10:48;;;;;;;9.52;8.57;;;24.50;99.90;;;;;;5026726;28;20223;-76
2023/06/25 07:13:16;;;;;;;9.07;8.18;;;24.70;99.90;;;;;;5024901;28;20211;-76
2023/06/25 07:15:44;;;;;;;9.00;8.07;;;24.70;99.90;;;;;;5012401;28;20183;-76
2023/06/25 07:18:11;;;;;;;9.82;8.90;;;24.90;99.90;;;;;;5020752;28;20227;-76
2023/06/25 07:20:39;;;;;;;8.00;7.20;;;25.00;99.90;;;;;;5015632;28;20219;-76
2023/06/25 07:23:06;;;;;;;8.05;7.25;;;25.10;99.90;;;;;;5019104;28;20202;-76
2023/06/25 07:25:39;;;;;;;7.60;6.88;;;25.10;99.90;;;;;;5002494;28;20199;-76
2023/06/25 07:28:08;;;;;;;8.10;7.30;;;25.30;99.90;;;;;;5017897;28;20195;-77
2023/06/25 07:30:39;;;;;;;7.50;6.80;;;25.30;99.90;;;;;;5005365;28;20219;-78
2023/06/25 07:33:06;;;;;;;7.05;6.45;;;25.20;99.90;;;;;;5009982;28;20207;-75
2023/06/25 07:35:34;;;;;;;9.35;6.88;;;25.30;99.90;;;;;;5009629;28;20215;-76
2023/06/25 07:38:12;;;;;;;7.80;6.53;;;25.30;99.90;;;;;;5010883;28;20209;-75
2023/06/25 07:40:39;;;;;;;6.88;6.28;;;25.30;99.90;;;;;;5004681;28;20696;-75
2023/06/25 07:43:07;;;;;;;7.15;6.45;;;25.40;99.90;;;;;;5005692;28;20211;-76
2023/06/25 07:45:34;;;;;;;7.05;6.45;;;25.40;99.90;;;;;;5007618;28;20207;-75
2023/06/25 07:48:06;;;;;;;6.30;5.65;;;25.50;98.30;;;;;;5010996;28;20207;-76
2023/06/25 07:50:33;;;;;;;6.93;6.22;;;25.50;98.10;;;;;;5019835;28;20199;-76
2023/06/25 07:53:00;;;;;;;6.88;6.18;;;25.50;97.30;;;;;;5006158;28;20208;-77
2023/06/25 07:55:28;;;;;;;6.40;5.88;;;25.60;98.30;;;;;;5025601;28;20203;-76
2023/06/25 07:58:00;;;;;;;7.00;6.38;;;25.70;98.30;;;;;;5018534;28;20199;-76
2023/06/25 08:00:27;;;;;;;6.68;5.90;;;25.70;97.60;;;;;;5004851;28;20219;-76
2023/06/25 08:03:08;;;;;;;6.65;6.15;;;25.90;97.70;;;;;;5024081;28;20199;-76
2023/06/25 08:05:35;;;;;;;6.43;5.70;;;25.90;97.20;;;;;;5023891;28;20688;-78
2023/06/25 08:08:21;;;;;;;6.82;5.43;;;26.00;97.20;;;;;;5010923;28;20196;-76
2023/06/25 08:10:51;;;;;;;6.68;5.93;;;25.90;96.80;;;;;;5018704;28;20218;-76
2023/06/25 08:13:18;;;;;;;6.32;5.70;;;25.90;97.00;;;;;;5018396;28;20220;-76
2023/06/25 08:15:59;;;;;;;8.50;5.68;;;26.00;96.50;;;;;;5007971;28;20215;-76
2023/06/25 08:18:32;;;;;;;6.30;5.80;;;26.10;96.20;;;;;;5005894;28;20248;-76
2023/06/25 08:20:59;;;;;;;6.00;5.35;;;26.30;94.20;;;;;;5022959;28;20602;-76
2023/06/25 08:23:27;;;;;;;6.13;5.57;;;26.30;93.70;;;;;;5007279;28;20595;-77
2023/06/25 08:25:55;;;;;;;6.28;5.75;;;26.40;93.40;;;;;;5009483;28;20207;-77
2023/06/25 08:28:22;;;;;;;6.70;5.45;;;26.50;94.00;;;;;;5011059;28;20199;-77
2023/06/25 08:30:55;;;;;;;6.20;5.10;;;26.60;93.90;;;;;;5008242;28;20234;-77
2023/06/25 08:33:41;;;;;;;6.28;5.60;;;26.40;93.90;;;;;;5014014;28;20208;-77
2023/06/25 08:36:18;;;;;;;6.30;5.70;;;26.50;91.50;;;;;;5028632;28;20191;-76
2023/06/25 08:38:45;;;;;;;5.57;5.07;;;26.70;91.50;;;;;;5009932;28;20210;-77
2023/06/25 08:41:13;;;;;;;7.03;6.32;;;26.70;91.50;;;;;;5005908;28;20404;-78
2023/06/25 08:43:41;;;;;;;7.53;6.05;;;26.80;92.10;;;;;;5008018;28;20211;-78
2023/06/25 08:46:08;;;;;;;6.55;5.95;;;26.80;91.60;;;;;;5005898;28;20202;-77
2023/06/25 08:48:39;;;;;;;9.55;6.28;;;26.80;91.30;;;;;;5011527;28;20203;-78
2023/06/25 08:51:17;;;;;;;5.90;5.40;;;26.90;91.30;;;;;;5009680;28;20222;-78
2023/06/25 08:53:44;;;;;;;5.82;5.32;;;26.90;91.90;;;;;;5001160;28;20198;-77
2023/06/25 08:56:15;;;;;;;8.75;5.68;;;27.10;91.20;;;;;;5011403;28;20223;-77
2023/06/25 08:58:43;;;;;;;5.63;5.07;;;27.30;89.50;;;;;;5009494;28;20205;-77
2023/06/25 09:01:12;;;;;;;6.10;5.60;;;27.20;87.80;;;;;;5009648;28;20231;-77
2023/06/25 09:03:41;;;;;;;6.22;5.70;;;27.20;88.70;;;;;;5020852;28;20199;-78
2023/06/25 09:06:17;;;;;;;6.18;5.68;;;27.20;86.70;;;;;;5009925;28;20204;-78
2023/06/25 09:08:45;;;;;;;6.20;5.60;;;27.20;87.70;;;;;;5013461;28;20199;-78
2023/06/25 09:11:13;;;;;;;6.68;6.07;;;27.30;88.20;;;;;;5027138;28;20238;-76
2023/06/25 09:13:42;;;;;;;5.85;5.40;;;27.30;85.30;;;;;;5032677;28;20238;-78
2023/06/25 09:16:11;;;;;;;6.13;5.53;;;27.30;87.40;;;;;;5010167;28;20200;-78
2023/06/25 09:18:39;;;;;;;6.72;6.13;;;27.30;88.20;;;;;;5010224;28;20220;-77
2023/06/25 09:21:09;;;;;;;6.18;5.60;;;27.20;87.60;;;;;;5010421;28;20219;-76
2023/06/25 09:23:38;;;;;;;6.40;5.72;;;27.10;86.90;;;;;;5020410;28;20207;-78
2023/06/25 09:26:08;;;;;;;7.57;6.20;;;27.10;86.90;;;;;;5024930;28;20203;-77
2023/06/25 09:28:49;;;;;;;6.75;6.05;;;27.10;85.70;;;;;;5021293;28;20199;-77
2023/06/25 09:31:17;;;;;;;6.43;5.82;;;27.30;89.00;;;;;;5003828;28;20231;-76
2023/06/25 09:33:50;;;;;;;6.10;5.60;;;27.20;89.20;;;;;;5025812;28;20734;-76
2023/06/25 09:36:19;;;;;;;6.78;6.18;;;27.10;87.60;;;;;;5001940;28;20839;-77
2023/06/25 09:38:49;;;;;;;6.93;6.30;;;27.20;88.60;;;;;;5010468;28;20203;-77
2023/06/25 09:41:17;;;;;;;6.35;5.80;;;27.40;86.10;;;;;;5008612;28;20720;-78
2023/06/25 09:43:46;;;;;;;5.97;5.38;;;27.40;83.80;;;;;;5010251;28;20188;-77
2023/06/25 09:46:14;;;;;;;6.50;5.90;;;27.50;85.70;;;;;;5008712;28;20208;-76
2023/06/25 09:48:42;;;;;;;8.15;6.32;;;27.50;84.80;;;;;;5011584;28;20199;-76
2023/06/25 09:51:12;;;;;;;5.70;5.10;;;27.60;83.90;;;;;;5006764;28;20222;-77
2023/06/25 09:53:43;;;;;;;6.18;5.57;;;27.60;83.00;;;;;;5007526;28;20208;-76
2023/06/25 09:56:13;;;;;;;6.07;5.47;;;27.60;82.10;;;;;;5007807;28;20203;-76
2023/06/25 09:58:44;;;;;;;6.70;5.97;;;27.70;82.40;;;;;;5023722;28;20204;-76
2023/06/25 10:01:12;;;;;;;5.55;5.15;;;27.70;82.00;;;;;;5007321;28;20224;-76
2023/06/25 10:03:40;;;;;;;6.55;5.95;;;27.70;81.60;;;;;;5009326;28;20650;-76
2023/06/25 10:06:20;;;;;;;5.93;5.40;;;27.70;81.40;;;;;;5006117;28;20572;-77
2023/06/25 10:08:51;;;;;;;5.53;5.03;;;27.80;80.90;;;;;;5010816;28;20217;-77
2023/06/25 10:11:20;;;;;;;5.88;5.45;;;27.90;81.70;;;;;;5025318;28;20224;-76
2023/06/25 10:13:48;;;;;;;6.35;5.75;;;28.00;81.50;;;;;;5025637;28;20204;-76
2023/06/25 10:16:19;;;;;;;6.28;5.72;;;27.80;80.40;;;;;;5010984;28;20192;-77
2023/06/25 10:18:47;;;;;;;5.97;5.47;;;28.00;82.20;;;;;;5009175;28;20196;-76
2023/06/25 10:21:23;;;;;;;5.82;5.32;;;27.80;81.00;;;;;;5011027;28;20231;-76
2023/06/25 10:24:02;;;;;;;5.60;5.10;;;27.70;81.80;;;;;;5004726;28;20685;-76
2023/06/25 10:26:33;;;;;;;5.82;5.32;;;27.70;81.10;;;;;;5011893;28;20203;-77
2023/06/25 10:29:02;;;;;;;6.20;5.70;;;27.70;83.90;;;;;;5027528;28;20658;-77
2023/06/25 10:31:37;;;;;;;6.38;5.65;;;27.80;82.20;;;;;;5006409;28;20219;-78
2023/06/25 10:34:06;;;;;;;6.47;5.88;;;28.00;84.00;;;;;;5003577;28;20605;-77
2023/06/25 10:36:33;;;;;;;6.72;6.10;;;27.90;82.30;;;;;;5006142;28;20192;-77
2023/06/25 10:39:01;;;;;;;6.93;6.22;;;28.10;82.40;;;;;;5025984;28;20204;-77
2023/06/25 10:41:36;;;;;;;6.47;5.85;;;28.10;79.80;;;;;;5002776;28;20219;-77
2023/06/25 10:44:04;;;;;;;6.30;5.75;;;28.20;79.90;;;;;;5002555;28;20826;-77
2023/06/25 10:46:32;;;;;;;6.38;5.78;;;28.20;79.50;;;;;;5011522;28;20211;-77
2023/06/25 10:49:00;;;;;;;6.47;5.88;;;28.30;79.20;;;;;;5022642;28;20208;-77
2023/06/25 10:51:29;;;;;;;6.60;5.97;;;28.40;78.80;;;;;;5021773;28;20227;-77
2023/06/25 10:53:57;;;;;;;6.50;6.00;;;28.30;78.10;;;;;;5021993;28;20860;-77
2023/06/25 10:56:25;;;;;;;6.15;5.55;;;28.30;77.70;;;;;;5019738;28;20207;-77
2023/06/25 10:58:57;;;;;;;6.32;5.32;;;28.40;77.90;;;;;;5001188;28;20246;-77
2023/06/25 11:01:25;;;;;;;6.68;5.72;;;28.60;79.30;;;;;;5003203;28;20230;-77
2023/06/25 11:03:52;;;;;;;6.22;5.72;;;28.80;79.40;;;;;;5015603;28;20196;-77
2023/06/25 11:06:20;;;;;;;7.00;6.30;;;28.90;80.40;;;;;;5019868;28;20215;-77
2023/06/25 11:08:49;;;;;;;6.43;5.93;;;28.80;79.30;;;;;;5007608;28;20203;-77
2023/06/25 11:11:16;;;;;;;6.47;5.88;;;28.70;78.60;;;;;;5005222;28;20724;-77
2023/06/25 11:13:48;;;;;;;6.03;5.53;;;28.50;79.50;;;;;;5024215;28;20219;-77
2023/06/25 11:16:16;;;;;;;5.93;5.40;;;28.90;78.50;;;;;;5006174;28;20204;-77
2023/06/25 11:18:46;;;;;;;6.75;6.15;;;29.00;77.60;;;;;;5004984;28;20197;-77
2023/06/25 11:21:15;;;;;;;7.00;6.30;;;29.10;79.20;;;;;;5007517;28;20224;-78
2023/06/25 11:23:44;;;;;;;6.18;5.68;;;29.00;78.10;;;;;;5006102;28;20196;-77
2023/06/25 11:26:14;;;;;;;6.20;5.70;;;29.30;77.90;;;;;;5007883;28;20195;-77
2023/06/25 11:28:42;;;;;;;6.28;5.68;;;29.10;76.60;;;;;;5007911;28;20204;-77
2023/06/25 11:31:11;;;;;;;7.90;5.72;;;28.90;77.10;;;;;;5004790;28;20697;-77
2023/06/25 11:33:40;;;;;;;5.88;5.38;;;29.10;77.00;;;;;;5003197;28;20216;-77
2023/06/25 11:36:10;;;;;;;6.22;5.70;;;29.20;76.60;;;;;;5018158;28;20197;-76
2023/06/25 11:38:37;;;;;;;5.90;5.40;;;29.30;74.80;;;;;;5007132;28;20196;-77
2023/06/25 11:41:07;;;;;;;6.18;5.32;;;29.40;74.10;;;;;;5006568;28;20220;-77
2023/06/25 11:43:35;;;;;;;5.93;5.43;;;29.60;77.00;;;;;;5005726;28;20223;-77
2023/06/25 11:46:03;;;;;;;5.82;5.30;;;29.40;76.30;;;;;;5017794;28;20203;-77
2023/06/25 11:48:34;;;;;;;5.85;5.32;;;29.40;77.70;;;;;;5007062;28;20207;-77
2023/06/25 11:51:07;;;;;;;6.05;5.55;;;29.10;76.30;;;;;;5010946;28;20234;-77
2023/06/25 11:53:34;;;;;;;6.40;5.90;;;28.90;77.10;;;;;;5018744;28;20216;-77
2023/06/25 11:56:02;;;;;;;6.15;5.55;;;28.90;76.60;;;;;;5022572;28;20211;-77
2023/06/25 11:58:30;;;;;;;5.90;5.40;;;29.20;76.80;;;;;;5002739;28;20196;-77
2023/06/25 12:00:58;;;;;;;6.38;5.72;;;29.60;75.40;;;;;;5005608;28;20323;-77
2023/06/25 12:03:26;;;;;;;5.57;5.03;;;29.70;74.60;;;;;;5023664;28;20574;-77
2023/06/25 12:05:53;;;;;;;5.32;4.93;;;29.70;73.80;;;;;;4996585;28;20202;-78
2023/06/25 12:08:22;;;;;;;5.57;5.07;;;30.00;74.40;;;;;;5007681;28;20196;-78
2023/06/25 12:10:49;;;;;;;5.95;5.35;;;30.30;72.90;;;;;;5004465;28;20219;-78
2023/06/25 12:13:17;;;;;;;5.57;5.07;;;30.40;73.90;;;;;;5000198;28;20231;-77
2023/06/25 12:15:44;;;;;;;5.85;5.35;;;30.30;71.70;;;;;;5006776;28;20283;-77
2023/06/25 12:18:12;;;;;;;5.95;5.45;;;30.20;71.20;;;;;;5023474;28;20223;-77
2023/06/25 12:20:39;;;;;;;5.70;5.20;;;30.00;75.00;;;;;;5004733;28;20232;-77
2023/06/25 12:23:06;;;;;;;5.95;5.45;;;30.30;71.10;;;;;;5005162;28;20219;-77
2023/06/25 12:25:35;;;;;;;5.68;5.15;;;30.60;69.70;;;;;;5010568;28;20557;-77
2023/06/25 12:28:03;;;;;;;5.90;5.40;;;30.60;67.20;;;;;;5014867;28;20191;-77
2023/06/25 12:30:30;;;;;;;5.60;4.97;;;30.70;66.90;;;;;;5010439;28;20579;-77
2023/06/25 12:32:58;;;;;;;5.60;5.10;;;30.90;69.00;;;;;;5008473;28;20601;-78
2023/06/25 12:35:25;;;;;;;5.20;4.80;;;31.20;70.60;;;;;;5009448;28;20238;-78
2023/06/25 12:37:53;;;;;;;5.70;5.20;;;31.40;69.70;;;;;;5024595;28;20676;-78
2023/06/25 12:40:21;;;;;;;6.00;5.50;;;31.00;67.80;;;;;;5025973;28;20211;-78
2023/06/25 12:42:50;;;;;;;5.75;5.25;;;30.90;65.80;;;;;;5031220;28;20195;-78
2023/06/25 12:45:18;;;;;;;5.43;4.90;;;31.00;68.00;;;;;;5010235;28;20195;-78
2023/06/25 12:47:45;;;;;;;6.20;4.97;;;31.40;66.10;;;;;;5011373;28;20211;-78
2023/06/25 12:50:13;;;;;;;5.50;5.10;;;31.80;63.20;;;;;;5007578;28;20200;-78
2023/06/25 12:52:40;;;;;;;5.40;5.00;;;31.80;63.20;;;;;;5025294;28;20223;-77
2023/06/25 12:55:08;;;;;;;5.90;5.13;;;31.20;62.60;;;;;;5011963;28;20212;-77